Time;durP1;ratioP1;P1;durP2;ratioP2;P2;SDS_P1;SDS_P2;PMS_P1;PMS_P2;Temp;Humidity;BMP_temperature;BMP_pressure;BME280_temperature;BME280_humidity;BME280_pressure;Samples;Min_cycle;Max_cycle;Signal;HPM_P1;HPM_P2
2022/01/18 00:01:31;;;;;;;8.32;2.50;;;;;;;;;;4946963;29;20379;-90
2022/01/18 00:03:58;;;;;;;10.60;3.20;;;;;;;;;;4957224;28;20031;-89
2022/01/18 00:06:24;;;;;;;10.40;3.83;;;;;;;;;;4950663;29;20115;-91
2022/01/18 00:08:50;;;;;;;10.00;3.42;;;;;;;;;;4962348;29;20023;-91
2022/01/18 00:11:19;;;;;;;8.20;3.20;;;;;;;;;;4961960;29;20023;-92
2022/01/18 00:13:48;;;;;;;12.13;4.18;;;;;;;;;;4962335;29;20066;-92
2022/01/18 00:16:37;;;;;;;9.70;3.58;;;;;;;;;;4962195;29;20109;-92
2022/01/18 00:19:08;;;;;;;11.70;4.15;;;;;;;;;;4961894;28;20070;-91
2022/01/18 00:24:24;;;;;;;10.88;3.63;;;;;;;;;;4903502;29;20035;-92
2022/01/18 00:26:50;;;;;;;9.38;3.15;;;;;;;;;;4887640;29;20040;-92
2022/01/18 00:32:33;;;;;;;10.18;3.35;;;;;;;;;;4919427;29;20091;-93
2022/01/18 00:34:59;;;;;;;11.02;3.85;;;;;;;;;;4921755;29;20077;-92
2022/01/18 00:37:51;;;;;;;12.38;4.00;;;;;;;;;;4905922;29;20029;-92
2022/01/18 00:40:13;;;;;;;8.75;2.80;;;;;;;;;;4921264;29;20402;-92
2022/01/18 00:42:39;;;;;;;10.23;3.17;;;;;;;;;;4921673;29;20028;-94
2022/01/18 00:45:06;;;;;;;13.55;4.13;;;;;;;;;;4921773;29;20060;-91
2022/01/18 00:47:32;;;;;;;10.60;3.42;;;;;;;;;;4934282;29;20035;-92
2022/01/18 00:50:01;;;;;;;14.52;4.00;;;;;;;;;;4910088;29;20048;-92
2022/01/18 00:52:28;;;;;;;10.45;3.90;;;;;;;;;;4921373;29;20391;-93
2022/01/18 00:54:54;;;;;;;17.25;5.68;;;;;;;;;;4905704;29;20344;-94
2022/01/18 00:57:21;;;;;;;13.82;4.95;;;;;;;;;;4921643;29;20025;-94
2022/01/18 00:59:47;;;;;;;15.95;4.88;;;;;;;;;;4904918;29;20028;-93
2022/01/18 01:02:14;;;;;;;14.40;4.93;;;;;;;;;;4951231;29;20427;-92
2022/01/18 01:04:47;;;;;;;15.68;5.05;;;;;;;;;;4961085;29;20118;-91
2022/01/18 01:07:13;;;;;;;13.68;4.32;;;;;;;;;;4944168;29;20031;-91
2022/01/18 01:09:39;;;;;;;14.98;4.93;;;;;;;;;;4961363;29;20370;-92
2022/01/18 01:12:06;;;;;;;12.30;4.82;;;;;;;;;;4944039;29;20046;-92
2022/01/18 01:14:33;;;;;;;11.77;3.80;;;;;;;;;;4961059;29;20034;-92
2022/01/18 01:17:15;;;;;;;13.02;3.83;;;;;;;;;;4960796;29;20028;-92
2022/01/18 01:42:05;;;;;;;7.85;3.13;;;;;;;;;;4960702;29;20066;-92
2022/01/18 01:44:40;;;;;;;11.43;3.53;;;;;;;;;;4959801;29;20023;-94
2022/01/18 01:47:06;;;;;;;7.07;2.95;;;;;;;;;;4960122;29;20426;-93
2022/01/18 01:49:32;;;;;;;12.75;2.95;;;;;;;;;;4960187;28;20027;-93
2022/01/18 01:51:58;;;;;;;8.13;3.00;;;;;;;;;;4960145;29;20031;-93
2022/01/18 01:54:24;;;;;;;10.73;3.50;;;;;;;;;;4960749;29;20035;-93
2022/01/18 01:56:51;;;;;;;6.15;2.33;;;;;;;;;;4960661;29;20046;-95
2022/01/18 01:59:17;;;;;;;7.28;2.60;;;;;;;;;;4960270;29;20019;-94
2022/01/18 02:01:45;;;;;;;4.30;1.80;;;;;;;;;;4943215;29;20023;-93
2022/01/18 02:04:11;;;;;;;6.75;2.25;;;;;;;;;;4960312;29;20031;-93
2022/01/18 02:06:38;;;;;;;5.32;1.80;;;;;;;;;;4960044;29;20027;-93
2022/01/18 02:11:51;;;;;;;4.07;1.80;;;;;;;;;;4959800;28;20051;-92
2022/01/18 03:31:52;;;;;;;9.40;2.85;;;;;;;;;;4983083;28;20070;-92
2022/01/18 03:34:19;;;;;;;16.20;5.55;;;;;;;;;;4962760;28;20038;-92
2022/01/18 03:36:46;;;;;;;10.57;3.28;;;;;;;;;;4963061;29;20023;-92
2022/01/18 03:39:12;;;;;;;19.58;5.22;;;;;;;;;;4962880;29;20024;-93
2022/01/18 03:44:25;;;;;;;4.15;1.92;;;;;;;;;;4982624;28;20138;-93
2022/01/18 03:46:53;;;;;;;9.65;2.67;;;;;;;;;;4982280;28;20055;-92
2022/01/18 03:49:22;;;;;;;5.40;2.35;;;;;;;;;;4979271;28;20329;-92
2022/01/18 03:51:48;;;;;;;8.98;2.55;;;;;;;;;;4966013;28;20019;-92
2022/01/18 03:54:21;;;;;;;6.28;2.80;;;;;;;;;;4981639;28;20038;-94
2022/01/18 03:56:47;;;;;;;12.60;3.83;;;;;;;;;;4947573;29;20031;-93
2022/01/18 04:02:17;;;;;;;7.63;2.83;;;;;;;;;;4978911;28;20123;-94
2022/01/18 04:04:43;;;;;;;7.90;3.10;;;;;;;;;;4945237;29;20027;-94
2022/01/18 04:07:10;;;;;;;9.82;3.67;;;;;;;;;;4962433;29;20394;-94
2022/01/18 04:09:36;;;;;;;8.20;3.50;;;;;;;;;;4962567;29;20023;-93
2022/01/18 04:12:03;;;;;;;6.60;2.80;;;;;;;;;;4962096;29;20023;-94
2022/01/18 04:31:21;;;;;;;9.77;3.60;;;;;;;;;;4996300;23;20061;-94
2022/01/18 04:33:48;;;;;;;7.93;3.17;;;;;;;;;;4974716;28;20095;-95
2022/01/18 04:36:14;;;;;;;9.23;3.55;;;;;;;;;;4948319;28;20023;-94
2022/01/18 04:38:40;;;;;;;8.05;2.75;;;;;;;;;;4954542;29;20027;-94
2022/01/18 04:41:10;;;;;;;7.20;3.00;;;;;;;;;;4962038;29;20027;-93
2022/01/18 04:49:44;;;;;;;11.93;3.10;;;;;;;;;;4947722;28;20046;-92
2022/01/18 04:52:12;;;;;;;8.00;3.35;;;;;;;;;;4952108;29;20023;-94
2022/01/18 04:54:42;;;;;;;8.32;2.78;;;;;;;;;;4953653;29;20424;-93
2022/01/18 05:10:58;;;;;;;8.30;3.10;;;;;;;;;;5027989;23;20055;-93
2022/01/18 06:12:30;;;;;;;14.25;5.90;;;;;;;;;;5035936;23;20153;-93
2022/01/18 06:14:58;;;;;;;24.17;10.93;;;;;;;;;;4962339;28;20334;-93
2022/01/18 06:20:10;;;;;;;32.10;13.70;;;;;;;;;;4999208;28;20487;-93
2022/01/18 06:22:36;;;;;;;28.95;12.80;;;;;;;;;;4998857;28;20043;-95
2022/01/18 06:25:02;;;;;;;31.58;12.00;;;;;;;;;;4949742;28;20039;-94
2022/01/18 09:54:43;;;;;;;24.00;8.90;;;;;;;;;;950191;23;20254;-95
2022/01/18 09:57:13;;;;;;;22.30;8.35;;;;;;;;;;4899925;29;20048;-93
2022/01/18 09:59:39;;;;;;;17.00;4.70;;;;;;;;;;4903357;29;20032;-93
2022/01/18 10:02:06;;;;;;;18.83;5.55;;;;;;;;;;4903351;29;20029;-93
2022/01/18 10:04:38;;;;;;;21.02;6.88;;;;;;;;;;4902893;29;20031;-94
2022/01/18 10:07:11;;;;;;;14.70;5.10;;;;;;;;;;4886710;29;20424;-95
2022/01/18 10:09:38;;;;;;;14.63;5.15;;;;;;;;;;4903697;29;20037;-94
2022/01/18 10:12:11;;;;;;;17.80;4.55;;;;;;;;;;4886658;29;20048;-94
2022/01/18 10:14:39;;;;;;;15.18;5.28;;;;;;;;;;4902797;29;20029;-95
2022/01/18 10:17:05;;;;;;;16.05;4.40;;;;;;;;;;4886451;29;20024;-94
2022/01/18 10:19:51;;;;;;;18.45;5.38;;;;;;;;;;4903036;29;20356;-94
2022/01/18 10:22:18;;;;;;;17.30;4.72;;;;;;;;;;4902218;29;20039;-95
2022/01/18 10:24:45;;;;;;;17.58;5.53;;;;;;;;;;4902823;29;20048;-94
2022/01/18 10:27:13;;;;;;;13.55;4.65;;;;;;;;;;4902840;29;20037;-96
2022/01/18 10:32:43;;;;;;;18.88;5.97;;;;;;;;;;4902236;29;20079;-96
2022/01/18 10:35:10;;;;;;;22.10;7.53;;;;;;;;;;4902630;29;20039;-95
2022/01/18 10:37:45;;;;;;;15.52;4.57;;;;;;;;;;4902616;29;20021;-94
2022/01/18 10:40:16;;;;;;;18.23;5.15;;;;;;;;;;4902669;29;20320;-94
2022/01/18 10:42:46;;;;;;;24.10;8.40;;;;;;;;;;4903645;29;20100;-94
2022/01/18 10:45:14;;;;;;;20.88;7.35;;;;;;;;;;4902824;29;20360;-94
2022/01/18 10:50:45;;;;;;;15.07;5.35;;;;;;;;;;4902815;29;20108;-95
2022/01/18 10:53:22;;;;;;;18.60;5.63;;;;;;;;;;4902481;29;20025;-94
2022/01/18 10:55:50;;;;;;;16.75;5.45;;;;;;;;;;4901293;29;20096;-93
2022/01/18 10:58:18;;;;;;;12.05;4.22;;;;;;;;;;4901563;29;20033;-93
2022/01/18 11:00:44;;;;;;;15.50;5.43;;;;;;;;;;4894772;29;20037;-94
2022/01/18 11:03:11;;;;;;;14.95;4.53;;;;;;;;;;4882939;29;20030;-94
2022/01/18 11:05:38;;;;;;;18.20;5.30;;;;;;;;;;4882753;29;20428;-94
2022/01/18 11:08:05;;;;;;;19.60;4.65;;;;;;;;;;4883643;29;20025;-92
2022/01/18 11:10:34;;;;;;;20.90;6.05;;;;;;;;;;4883614;29;20036;-93
2022/01/18 11:13:13;;;;;;;23.70;7.10;;;;;;;;;;4882653;29;20436;-94
2022/01/18 11:15:42;;;;;;;14.43;5.25;;;;;;;;;;4898250;29;20164;-93
2022/01/18 11:18:16;;;;;;;16.58;5.05;;;;;;;;;;4898225;29;20091;-94
2022/01/18 11:20:44;;;;;;;14.77;3.80;;;;;;;;;;4883284;29;20092;-94
2022/01/18 11:23:10;;;;;;;13.73;3.55;;;;;;;;;;4898091;29;20032;-94
2022/01/18 11:25:38;;;;;;;10.63;3.45;;;;;;;;;;4898177;29;20040;-94
2022/01/18 11:28:05;;;;;;;14.43;3.85;;;;;;;;;;4883681;29;20074;-94
2022/01/18 11:30:32;;;;;;;14.68;3.90;;;;;;;;;;4883439;29;20021;-94
2022/01/18 11:32:59;;;;;;;13.20;3.92;;;;;;;;;;4897947;29;20115;-93
2022/01/18 11:35:43;;;;;;;13.07;4.22;;;;;;;;;;4883155;29;20117;-94
2022/01/18 11:38:32;;;;;;;13.13;4.18;;;;;;;;;;4883544;29;20029;-95
2022/01/18 11:40:59;;;;;;;13.88;5.40;;;;;;;;;;4864285;29;20040;-93
2022/01/18 11:43:44;;;;;;;15.85;5.93;;;;;;;;;;4898451;29;20057;-95
2022/01/18 11:46:24;;;;;;;14.25;4.70;;;;;;;;;;4887431;29;20056;-94
2022/01/18 11:48:59;;;;;;;15.82;4.55;;;;;;;;;;4901310;29;20037;-96
2022/01/18 11:51:48;;;;;;;13.70;5.13;;;;;;;;;;4886801;29;20021;-94
2022/01/18 11:54:28;;;;;;;24.33;5.97;;;;;;;;;;4886553;29;20301;-95
2022/01/18 11:56:55;;;;;;;12.23;4.38;;;;;;;;;;4901211;29;20053;-94
2022/01/18 11:59:24;;;;;;;23.38;8.68;;;;;;;;;;4886857;29;20113;-94
2022/01/18 12:01:51;;;;;;;17.52;5.28;;;;;;;;;;4886713;29;20044;-95
2022/01/18 12:04:36;;;;;;;19.95;7.25;;;;;;;;;;4901252;29;20112;-94
2022/01/18 12:07:02;;;;;;;18.65;5.97;;;;;;;;;;4886699;29;20029;-94
2022/01/18 12:09:41;;;;;;;49.85;18.20;;;;;;;;;;4886384;29;20033;-94
2022/01/18 12:12:28;;;;;;;20.20;6.60;;;;;;;;;;4884296;29;20124;-94
2022/01/18 12:14:54;;;;;;;24.13;8.07;;;;;;;;;;4814234;29;20038;-94
2022/01/18 12:17:20;;;;;;;25.27;8.27;;;;;;;;;;4829150;29;20068;-94
2022/01/18 12:19:47;;;;;;;18.05;6.72;;;;;;;;;;4829264;29;20087;-91
2022/01/18 12:22:13;;;;;;;50.13;18.02;;;;;;;;;;4814624;29;20034;-94
2022/01/18 12:24:45;;;;;;;21.17;9.30;;;;;;;;;;4829222;29;20335;-95
2022/01/18 12:27:29;;;;;;;16.80;5.20;;;;;;;;;;4828907;29;20038;-95
2022/01/18 12:30:26;;;;;;;38.95;15.23;;;;;;;;;;4828883;29;20034;-94
2022/01/18 12:33:10;;;;;;;18.17;5.88;;;;;;;;;;4828907;29;20034;-95
2022/01/18 12:35:36;;;;;;;45.22;16.30;;;;;;;;;;4829414;29;20315;-94
2022/01/18 12:38:09;;;;;;;24.88;7.47;;;;;;;;;;4813339;29;20121;-93
2022/01/18 12:40:35;;;;;;;;;;;;;;;;;;4829497;29;20510;-93
2022/01/18 12:45:33;;;;;;;22.42;8.30;;;;;;;;;;4828790;29;20038;-94
2022/01/18 12:48:09;;;;;;;64.47;21.92;;;;;;;;;;4828722;29;20054;-93
2022/01/18 12:50:37;;;;;;;25.40;8.18;;;;;;;;;;4828757;29;20037;-93
2022/01/18 12:53:06;;;;;;;17.27;5.70;;;;;;;;;;4866483;29;20450;-93
2022/01/18 12:55:35;;;;;;;67.85;23.63;;;;;;;;;;4883935;29;20037;-94
2022/01/18 12:58:01;;;;;;;20.67;7.15;;;;;;;;;;4885492;29;20029;-94
2022/01/18 13:00:27;;;;;;;22.33;5.80;;;;;;;;;;4885435;29;20064;-94
2022/01/18 13:02:58;;;;;;;28.17;10.38;;;;;;;;;;4884478;29;20029;-95
2022/01/18 13:05:32;;;;;;;40.88;13.20;;;;;;;;;;4884520;29;20069;-94
2022/01/18 13:07:58;;;;;;;76.53;29.60;;;;;;;;;;4885598;29;20040;-94
2022/01/18 13:10:40;;;;;;;36.10;12.65;;;;;;;;;;4885427;29;20025;-93
2022/01/18 13:13:07;;;;;;;40.38;14.90;;;;;;;;;;4885751;29;20033;-93
2022/01/18 13:24:30;;;;;;;24.88;9.57;;;;;;;;;;4849100;29;20078;-93
2022/01/18 13:26:56;;;;;;;36.42;13.18;;;;;;;;;;4844069;29;20111;-95
2022/01/18 13:29:25;;;;;;;37.00;14.80;;;;;;;;;;4863890;29;20042;-95
2022/01/18 13:32:02;;;;;;;32.78;12.77;;;;;;;;;;4863192;29;20033;-95
2022/01/18 13:34:32;;;;;;;34.60;11.98;;;;;;;;;;4828563;29;20363;-95
2022/01/18 13:37:04;;;;;;;42.30;15.70;;;;;;;;;;4853997;29;20119;-93
2022/01/18 13:39:39;;;;;;;33.55;12.18;;;;;;;;;;4846944;29;20072;-95
2022/01/18 13:42:05;;;;;;;26.60;11.85;;;;;;;;;;4864654;29;20048;-95
2022/01/18 13:44:32;;;;;;;15.45;6.03;;;;;;;;;;4864619;29;20029;-94
2022/01/18 13:47:14;;;;;;;18.38;5.75;;;;;;;;;;4864673;29;20325;-94
2022/01/18 13:49:41;;;;;;;21.33;6.78;;;;;;;;;;4864542;29;20045;-93
2022/01/18 13:52:08;;;;;;;18.02;4.90;;;;;;;;;;4864753;29;20066;-94
2022/01/18 13:54:50;;;;;;;16.35;5.30;;;;;;;;;;4855431;29;20040;-93
2022/01/18 13:57:17;;;;;;;21.95;4.97;;;;;;;;;;4903382;29;20320;-93
2022/01/18 13:59:44;;;;;;;21.92;4.85;;;;;;;;;;4903377;29;20156;-94
2022/01/18 14:02:11;;;;;;;16.88;5.15;;;;;;;;;;4903125;29;20320;-94
2022/01/18 14:04:38;;;;;;;14.70;3.83;;;;;;;;;;4903166;29;20039;-93
2022/01/18 14:07:05;;;;;;;13.73;4.22;;;;;;;;;;4903288;29;20357;-93
2022/01/18 14:09:31;;;;;;;15.70;5.22;;;;;;;;;;4903429;29;20327;-95
2022/01/18 14:11:57;;;;;;;15.55;4.57;;;;;;;;;;4902102;29;20075;-93
2022/01/18 14:14:25;;;;;;;13.18;4.57;;;;;;;;;;4902145;29;20099;-94
2022/01/18 14:16:58;;;;;;;12.75;4.63;;;;;;;;;;4902377;29;20081;-94
2022/01/18 14:19:26;;;;;;;15.73;4.05;;;;;;;;;;4903064;29;20403;-93
2022/01/18 14:21:52;;;;;;;19.77;4.47;;;;;;;;;;4902915;29;20029;-93
2022/01/18 14:24:20;;;;;;;14.10;4.32;;;;;;;;;;4901877;29;20059;-95
2022/01/18 14:26:49;;;;;;;16.70;4.78;;;;;;;;;;4902913;29;20099;-94
2022/01/18 14:29:16;;;;;;;14.82;4.45;;;;;;;;;;4902736;29;20036;-93
2022/01/18 14:31:42;;;;;;;12.50;3.50;;;;;;;;;;4902609;29;20025;-93
2022/01/18 14:34:10;;;;;;;17.52;4.32;;;;;;;;;;4902670;29;20029;-92
2022/01/18 14:36:48;;;;;;;15.93;4.07;;;;;;;;;;4901984;29;20028;-93
2022/01/18 14:39:14;;;;;;;28.88;8.75;;;;;;;;;;4902760;29;20041;-94
2022/01/18 14:41:40;;;;;;;29.00;9.18;;;;;;;;;;4902766;29;20029;-92
2022/01/18 14:44:13;;;;;;;15.32;4.88;;;;;;;;;;4902391;29;20044;-93
2022/01/18 14:47:23;;;;;;;12.43;4.80;;;;;;;;;;4902004;29;20059;-93
2022/01/18 14:49:42;;;;;;;13.02;4.75;;;;;;;;;;4887402;29;20344;-94
2022/01/18 14:52:08;;;;;;;24.45;7.05;;;;;;;;;;4883955;29;20426;-92
2022/01/18 14:54:34;;;;;;;14.90;4.03;;;;;;;;;;4882918;29;20451;-93
2022/01/18 14:57:00;;;;;;;15.35;4.30;;;;;;;;;;4883740;29;20057;-92
2022/01/18 14:59:27;;;;;;;21.85;6.82;;;;;;;;;;4883234;29;20033;-94
2022/01/18 15:01:53;;;;;;;30.48;10.02;;;;;;;;;;4883953;29;20025;-92
2022/01/18 15:04:21;;;;;;;31.08;11.60;;;;;;;;;;4883529;29;20120;-94
2022/01/18 15:06:47;;;;;;;156.75;72.80;;;;;;;;;;4882576;29;20053;-95
2022/01/18 15:09:13;;;;;;;230.27;105.50;;;;;;;;;;4883613;29;20040;-92
2022/01/18 15:11:39;;;;;;;287.38;131.15;;;;;;;;;;4882559;29;20100;-94
2022/01/18 15:14:05;;;;;;;325.58;152.82;;;;;;;;;;4882376;29;20029;-94
2022/01/18 15:16:31;;;;;;;242.38;102.90;;;;;;;;;;4882541;29;20033;-93
2022/01/18 15:18:57;;;;;;;252.52;112.68;;;;;;;;;;4900800;29;20043;-96
2022/01/18 15:21:24;;;;;;;310.67;144.30;;;;;;;;;;4887887;29;20035;-96
2022/01/18 15:23:51;;;;;;;176.45;83.15;;;;;;;;;;4887429;29;20037;-96
2022/01/18 15:26:17;;;;;;;121.65;54.22;;;;;;;;;;4902349;29;20132;-96
2022/01/18 15:28:46;;;;;;;59.47;26.77;;;;;;;;;;4888412;29;20040;-96
2022/01/18 15:31:13;;;;;;;53.08;24.20;;;;;;;;;;4890887;29;20365;-96
2022/01/18 15:33:39;;;;;;;54.75;27.48;;;;;;;;;;4891857;29;20336;-96
2022/01/18 15:36:08;;;;;;;75.85;36.88;;;;;;;;;;4888263;29;20115;-95
2022/01/18 15:38:35;;;;;;;36.80;20.73;;;;;;;;;;4887152;29;20432;-96
2022/01/18 15:41:03;;;;;;;31.65;17.35;;;;;;;;;;4889043;29;20029;-96
2022/01/18 15:43:32;;;;;;;65.90;28.60;;;;;;;;;;4888148;29;20033;-96
2022/01/18 15:46:02;;;;;;;71.05;35.33;;;;;;;;;;4886286;29;20043;-96
2022/01/18 15:48:28;;;;;;;66.32;33.25;;;;;;;;;;4886350;29;20182;-96
2022/01/18 15:50:54;;;;;;;53.35;27.95;;;;;;;;;;4887279;29;20104;-96
2022/01/18 15:53:20;;;;;;;58.53;27.83;;;;;;;;;;4885863;29;20483;-96
2022/01/18 15:55:47;;;;;;;48.60;24.88;;;;;;;;;;4885756;29;20208;-95
2022/01/18 15:58:14;;;;;;;35.53;17.65;;;;;;;;;;4886863;29;20040;-95
2022/01/18 16:00:43;;;;;;;30.60;16.83;;;;;;;;;;4886999;29;20056;-94
2022/01/18 16:03:10;;;;;;;33.70;15.38;;;;;;;;;;4885659;29;20029;-96
2022/01/18 16:05:52;;;;;;;33.45;16.17;;;;;;;;;;4886404;29;20041;-95
2022/01/18 16:08:18;;;;;;;33.95;15.13;;;;;;;;;;4885671;29;20331;-95
2022/01/18 16:10:46;;;;;;;51.55;19.20;;;;;;;;;;4885644;29;20057;-96
2022/01/18 16:13:13;;;;;;;53.78;17.67;;;;;;;;;;4886986;29;20301;-96
2022/01/18 16:15:39;;;;;;;52.65;16.58;;;;;;;;;;4886576;29;20036;-96
2022/01/18 16:18:05;;;;;;;33.58;12.02;;;;;;;;;;4886773;29;20029;-96
2022/01/18 16:20:33;;;;;;;31.27;12.82;;;;;;;;;;4885217;29;20127;-95
2022/01/18 16:22:59;;;;;;;36.85;14.52;;;;;;;;;;4892065;29;20304;-96
2022/01/18 16:25:26;;;;;;;27.13;11.27;;;;;;;;;;4890882;29;20033;-95
2022/01/18 16:27:52;;;;;;;23.55;11.45;;;;;;;;;;4882959;29;20041;-94
2022/01/18 16:30:19;;;;;;;26.98;12.65;;;;;;;;;;4885286;29;20103;-96
2022/01/18 16:32:47;;;;;;;27.77;12.52;;;;;;;;;;4886251;29;20029;-96
2022/01/18 16:35:14;;;;;;;33.97;14.90;;;;;;;;;;4871308;29;20171;-96
2022/01/18 16:37:40;;;;;;;83.43;27.45;;;;;;;;;;4886055;29;20309;-94
2022/01/18 16:40:10;;;;;;;170.05;45.95;;;;;;;;;;4897811;29;20025;-95
2022/01/18 16:42:36;;;;;;;244.07;62.83;;;;;;;;;;4886425;29;20025;-95
2022/01/18 16:45:21;;;;;;;252.60;63.15;;;;;;;;;;4886347;29;20035;-94
2022/01/18 16:47:48;;;;;;;200.30;59.47;;;;;;;;;;4886302;29;20023;-95
2022/01/18 16:50:15;;;;;;;78.75;28.48;;;;;;;;;;4885998;29;20025;-95
2022/01/18 16:52:41;;;;;;;65.80;23.42;;;;;;;;;;4885590;29;20060;-95
2022/01/18 16:55:08;;;;;;;41.85;17.58;;;;;;;;;;4880515;29;20037;-95
2022/01/18 16:57:36;;;;;;;47.28;17.17;;;;;;;;;;4870326;29;20037;-95
2022/01/18 17:00:03;;;;;;;37.50;14.77;;;;;;;;;;4888889;29;20057;-96
2022/01/18 17:02:31;;;;;;;33.55;13.00;;;;;;;;;;4893922;29;20040;-96
2022/01/18 17:04:57;;;;;;;41.58;16.50;;;;;;;;;;4887128;29;20029;-95
2022/01/18 17:07:23;;;;;;;24.10;12.77;;;;;;;;;;4882446;29;20029;-95
2022/01/18 17:09:49;;;;;;;56.58;20.75;;;;;;;;;;4886173;29;20025;-96
2022/01/18 17:12:16;;;;;;;40.90;16.95;;;;;;;;;;4885487;29;20025;-94
2022/01/18 17:14:56;;;;;;;37.22;17.08;;;;;;;;;;4869142;29;20090;-95
2022/01/18 17:17:23;;;;;;;35.00;15.65;;;;;;;;;;4885767;29;20057;-96
2022/01/18 17:19:49;;;;;;;36.25;15.55;;;;;;;;;;4885601;29;20033;-96
2022/01/18 17:22:15;;;;;;;30.30;14.05;;;;;;;;;;4885169;29;20424;-96
2022/01/18 17:24:42;;;;;;;27.25;12.68;;;;;;;;;;4885582;29;20069;-96
2022/01/18 17:27:08;;;;;;;113.38;31.73;;;;;;;;;;4887730;29;20033;-96
2022/01/18 17:29:52;;;;;;;123.15;35.15;;;;;;;;;;4885731;29;20025;-95
2022/01/18 17:32:19;;;;;;;131.80;38.08;;;;;;;;;;4880911;29;20037;-94
2022/01/18 17:34:46;;;;;;;58.42;21.42;;;;;;;;;;4885445;29;20037;-94
2022/01/18 17:37:12;;;;;;;47.70;17.88;;;;;;;;;;4868853;29;20069;-93
2022/01/18 17:39:39;;;;;;;42.72;19.23;;;;;;;;;;4884710;29;20048;-94
2022/01/18 17:42:05;;;;;;;48.28;24.33;;;;;;;;;;4884515;29;20447;-93
2022/01/18 17:44:31;;;;;;;86.82;45.17;;;;;;;;;;4884948;29;20165;-92
2022/01/18 17:46:58;;;;;;;100.10;51.42;;;;;;;;;;4868282;29;20068;-91
2022/01/18 17:49:24;;;;;;;119.95;61.67;;;;;;;;;;4884954;29;20029;-92
2022/01/18 17:51:50;;;;;;;165.02;83.07;;;;;;;;;;4885105;29;20089;-92
2022/01/18 17:54:16;;;;;;;169.35;84.55;;;;;;;;;;4884657;29;20037;-92
2022/01/18 17:56:42;;;;;;;171.73;85.53;;;;;;;;;;4868014;29;20057;-91
2022/01/18 17:59:09;;;;;;;193.02;105.80;;;;;;;;;;4884683;29;20037;-92
2022/01/18 18:01:35;;;;;;;104.68;59.67;;;;;;;;;;4884481;29;20029;-92
2022/01/18 18:04:02;;;;;;;67.03;36.50;;;;;;;;;;4868111;29;20080;-91
2022/01/18 18:06:28;;;;;;;48.92;22.80;;;;;;;;;;4884766;29;20033;-93
2022/01/18 18:08:54;;;;;;;40.22;17.00;;;;;;;;;;4884752;29;20068;-92
2022/01/18 18:11:20;;;;;;;54.78;20.33;;;;;;;;;;4884546;29;20021;-93
2022/01/18 18:13:46;;;;;;;62.28;22.25;;;;;;;;;;4884208;29;20029;-92
2022/01/18 18:16:12;;;;;;;49.53;19.00;;;;;;;;;;4867920;29;20049;-94
2022/01/18 18:18:38;;;;;;;24.42;10.98;;;;;;;;;;4884334;29;20037;-92
2022/01/18 18:21:04;;;;;;;22.90;9.38;;;;;;;;;;4884293;29;20036;-91
2022/01/18 18:23:30;;;;;;;21.88;9.10;;;;;;;;;;4884415;29;20081;-93
2022/01/18 18:25:56;;;;;;;22.70;9.10;;;;;;;;;;4861404;29;20040;-94
2022/01/18 18:28:22;;;;;;;29.05;10.25;;;;;;;;;;4884175;29;20036;-92
2022/01/18 18:30:49;;;;;;;30.77;10.60;;;;;;;;;;4884079;29;20033;-92
2022/01/18 18:33:16;;;;;;;26.63;10.07;;;;;;;;;;4883987;29;20029;-92
2022/01/18 18:35:43;;;;;;;26.45;10.57;;;;;;;;;;4884356;29;20089;-91
2022/01/18 18:38:11;;;;;;;43.70;17.23;;;;;;;;;;4883437;29;20073;-91
2022/01/18 18:45:39;;;;;;;47.83;18.38;;;;;;;;;;4883969;29;20039;-92
2022/01/18 18:48:06;;;;;;;46.28;19.67;;;;;;;;;;4884130;29;20320;-91
2022/01/18 18:50:33;;;;;;;39.47;17.88;;;;;;;;;;4883777;29;20053;-93
2022/01/18 18:52:59;;;;;;;40.83;17.30;;;;;;;;;;4883355;29;20047;-93
2022/01/18 18:55:26;;;;;;;39.45;17.85;;;;;;;;;;4883627;29;20033;-92
2022/01/18 18:58:08;;;;;;;40.85;18.13;;;;;;;;;;4883794;29;20047;-91
2022/01/18 19:03:15;;;;;;;40.58;19.20;;;;;;;;;;4883966;29;20045;-92
2022/01/18 19:05:43;;;;;;;45.50;20.40;;;;;;;;;;4883788;29;20101;-91
2022/01/18 19:08:09;;;;;;;50.03;22.73;;;;;;;;;;4882902;29;20431;-92
2022/01/18 19:10:35;;;;;;;46.50;19.80;;;;;;;;;;4883687;29;20036;-92
2022/01/18 19:13:03;;;;;;;42.67;18.92;;;;;;;;;;4883048;29;20038;-91
2022/01/18 19:15:30;;;;;;;51.08;20.10;;;;;;;;;;4883629;29;20112;-91
2022/01/18 19:17:56;;;;;;;50.15;21.90;;;;;;;;;;4882828;29;20037;-91
2022/01/18 19:20:23;;;;;;;54.15;22.63;;;;;;;;;;4882659;29;20045;-92
2022/01/18 19:22:50;;;;;;;50.15;22.70;;;;;;;;;;4883026;29;20145;-92
2022/01/18 19:25:17;;;;;;;61.78;23.45;;;;;;;;;;4883577;29;20064;-91
2022/01/18 19:27:43;;;;;;;60.13;22.17;;;;;;;;;;4883262;29;20104;-91
2022/01/18 19:30:10;;;;;;;72.90;25.35;;;;;;;;;;4867662;29;20033;-91
2022/01/18 19:32:37;;;;;;;72.85;30.15;;;;;;;;;;4883499;29;20053;-92
2022/01/18 19:35:04;;;;;;;82.28;40.05;;;;;;;;;;4883380;29;20030;-91
2022/01/18 19:37:30;;;;;;;99.70;45.42;;;;;;;;;;4867352;29;20073;-91
2022/01/18 19:39:56;;;;;;;144.00;60.80;;;;;;;;;;4883339;29;20040;-92
2022/01/18 19:42:36;;;;;;;135.18;59.53;;;;;;;;;;4882495;29;20132;-91
2022/01/18 19:45:06;;;;;;;130.85;57.75;;;;;;;;;;4882229;29;20029;-91
2022/01/18 19:47:33;;;;;;;116.03;54.97;;;;;;;;;;4883528;29;20030;-92
2022/01/18 19:49:59;;;;;;;116.80;54.45;;;;;;;;;;4882876;29;20454;-93
2022/01/18 19:52:26;;;;;;;122.25;56.42;;;;;;;;;;4883501;29;20408;-92
2022/01/18 19:54:52;;;;;;;117.20;54.20;;;;;;;;;;4883060;29;20029;-92
2022/01/18 19:57:18;;;;;;;112.82;47.63;;;;;;;;;;4882228;29;20077;-91
2022/01/18 19:59:44;;;;;;;223.52;71.45;;;;;;;;;;4882163;29;20436;-92
2022/01/18 20:02:10;;;;;;;234.65;73.80;;;;;;;;;;4882385;29;20414;-92
2022/01/18 20:04:37;;;;;;;224.13;69.10;;;;;;;;;;4884187;29;20412;-91
2022/01/18 20:07:04;;;;;;;182.52;58.55;;;;;;;;;;4886744;29;20033;-91
2022/01/18 20:09:30;;;;;;;168.93;54.50;;;;;;;;;;4870571;29;20369;-91
2022/01/18 20:11:56;;;;;;;139.02;48.35;;;;;;;;;;4885929;29;20086;-92
2022/01/18 20:14:22;;;;;;;148.57;46.28;;;;;;;;;;4886713;29;20224;-91
2022/01/18 20:16:48;;;;;;;217.73;58.97;;;;;;;;;;4886283;29;20400;-92
2022/01/18 20:19:14;;;;;;;145.23;49.30;;;;;;;;;;4886604;29;20025;-92
2022/01/18 20:21:40;;;;;;;163.10;53.10;;;;;;;;;;4886440;29;20025;-91
2022/01/18 20:24:06;;;;;;;189.35;60.80;;;;;;;;;;4885474;29;20048;-92
2022/01/18 20:26:32;;;;;;;188.68;60.17;;;;;;;;;;4884595;29;20032;-90
2022/01/18 20:28:58;;;;;;;166.48;51.80;;;;;;;;;;4884950;29;20104;-91
2022/01/18 20:31:26;;;;;;;86.00;31.38;;;;;;;;;;4886117;29;20049;-92
2022/01/18 20:33:52;;;;;;;69.70;28.00;;;;;;;;;;4869776;29;20124;-93
2022/01/18 20:36:19;;;;;;;104.45;38.65;;;;;;;;;;4886137;29;20455;-92
2022/01/18 20:38:45;;;;;;;100.07;39.38;;;;;;;;;;4885761;29;20037;-91
2022/01/18 20:41:12;;;;;;;80.30;36.15;;;;;;;;;;4869418;29;20044;-92
2022/01/18 20:43:39;;;;;;;90.80;39.75;;;;;;;;;;4869525;29;20495;-91
2022/01/18 20:46:11;;;;;;;72.10;31.73;;;;;;;;;;4869466;29;20033;-91
2022/01/18 20:48:40;;;;;;;156.32;55.70;;;;;;;;;;4885889;29;20442;-90
2022/01/18 20:51:06;;;;;;;70.90;31.25;;;;;;;;;;4885922;29;20035;-90
2022/01/18 20:53:34;;;;;;;109.68;42.58;;;;;;;;;;4885994;29;20357;-90
2022/01/18 20:56:01;;;;;;;60.70;27.88;;;;;;;;;;4885541;29;20051;-92
2022/01/18 20:58:28;;;;;;;58.15;26.13;;;;;;;;;;4885695;29;20051;-92
2022/01/18 21:03:57;;;;;;;225.37;83.37;;;;;;;;;;4885765;29;20059;-91
2022/01/18 21:06:24;;;;;;;76.50;35.97;;;;;;;;;;4885945;29;20060;-92
2022/01/18 21:08:50;;;;;;;113.20;45.22;;;;;;;;;;4869103;29;20043;-91
2022/01/18 21:11:16;;;;;;;94.93;39.33;;;;;;;;;;4885365;29;20119;-91
2022/01/18 21:13:51;;;;;;;102.82;40.65;;;;;;;;;;4884600;29;20041;-92
2022/01/18 21:19:21;;;;;;;85.53;36.22;;;;;;;;;;4885334;29;20111;-93
2022/01/18 21:21:48;;;;;;;85.80;33.08;;;;;;;;;;4885408;29;20043;-91
2022/01/18 21:24:14;;;;;;;79.07;31.50;;;;;;;;;;4885089;29;20025;-92
2022/01/18 21:26:40;;;;;;;71.03;29.63;;;;;;;;;;4884081;29;20048;-93
2022/01/18 21:29:08;;;;;;;62.25;27.35;;;;;;;;;;4885085;29;20092;-93
2022/01/18 21:31:35;;;;;;;54.47;23.88;;;;;;;;;;4885269;29;20025;-93
2022/01/18 21:34:03;;;;;;;65.72;26.15;;;;;;;;;;4885054;29;20100;-93
2022/01/18 21:36:30;;;;;;;106.00;40.30;;;;;;;;;;4884349;29;20029;-92
2022/01/18 21:38:56;;;;;;;106.25;41.25;;;;;;;;;;4884877;29;20053;-92
2022/01/18 21:41:22;;;;;;;104.00;39.55;;;;;;;;;;4884988;29;20104;-90
2022/01/18 21:43:48;;;;;;;85.53;32.15;;;;;;;;;;4884937;29;20040;-92
2022/01/18 21:46:14;;;;;;;67.25;26.60;;;;;;;;;;4883862;29;20131;-91
2022/01/18 21:48:40;;;;;;;82.85;30.15;;;;;;;;;;4884021;29;20028;-92
2022/01/18 21:51:08;;;;;;;92.63;33.17;;;;;;;;;;4883953;29;20026;-91
2022/01/18 21:53:35;;;;;;;88.78;33.15;;;;;;;;;;4884990;29;20029;-92
2022/01/18 21:56:03;;;;;;;83.22;30.02;;;;;;;;;;4883438;29;20059;-91
2022/01/18 21:58:29;;;;;;;86.53;30.88;;;;;;;;;;4883877;29;20044;-90
2022/01/18 22:00:55;;;;;;;98.95;31.67;;;;;;;;;;4884478;29;20033;-93
2022/01/18 22:03:21;;;;;;;144.50;41.28;;;;;;;;;;4883328;29;20037;-90